Time;durP1;ratioP1;P1;durP2;ratioP2;P2;SDS_P1;SDS_P2;PMS_P1;PMS_P2;Temp;Humidity;BMP_temperature;BMP_pressure;BME280_temperature;BME280_humidity;BME280_pressure;Samples;Min_cycle;Max_cycle;Signal;HPM_P1;HPM_P2
2024/04/01 00:02:18;;;;;;;;;;;14.50;34.40;16.10;96375.00;;;;5059089;28;1637;-89
2024/04/01 00:04:45;;;;;;;;;;;14.50;33.90;16.10;96432.00;;;;5056371;28;1652;-89
2024/04/01 00:07:12;;;;;;;;;;;14.50;33.80;16.20;96389.00;;;;5056969;28;1905;-89
2024/04/01 00:09:40;;;;;;;;;;;14.50;33.60;16.20;96385.00;;;;5056257;28;1698;-89
2024/04/01 00:12:07;;;;;;;;;;;14.60;33.60;16.20;96433.00;;;;5058032;28;1454;-89
2024/04/01 00:14:35;;;;;;;;;;;14.60;33.40;16.20;96414.00;;;;5067350;28;1640;-89
2024/04/01 00:17:01;;;;;;;;;;;14.60;33.20;16.20;96372.00;;;;5055749;28;1823;-89
2024/04/01 00:19:28;;;;;;;;;;;14.60;33.00;16.30;96396.00;;;;5055480;28;1651;-89
2024/04/01 00:21:54;;;;;;;;;;;14.60;32.90;16.20;96367.00;;;;5051540;28;1697;-89
2024/04/01 00:24:21;;;;;;;;;;;14.60;33.20;16.20;96320.00;;;;5078250;28;1511;-90
2024/04/01 00:26:48;;;;;;;;;;;14.50;33.70;16.20;96336.00;;;;5074995;28;1987;-91
2024/04/01 00:29:15;;;;;;;;;;;14.50;34.10;16.20;96316.00;;;;5076065;28;1697;-90
2024/04/01 00:31:41;;;;;;;;;;;14.50;33.70;16.20;96322.00;;;;5055667;28;1657;-89
2024/04/01 00:34:09;;;;;;;;;;;14.50;33.50;16.20;96307.00;;;;5052585;28;1636;-89
2024/04/01 00:36:35;;;;;;;;;;;14.50;33.30;16.20;96333.00;;;;5052792;28;1689;-89
2024/04/01 00:39:02;;;;;;;;;;;14.60;33.20;16.20;96348.00;;;;5055822;28;1754;-89
2024/04/01 00:41:28;;;;;;;;;;;14.60;33.20;16.20;96378.00;;;;5055780;28;1818;-89
2024/04/01 00:43:56;;;;;;;;;;;14.60;33.10;16.30;96336.00;;;;5055669;28;1531;-89
2024/04/01 00:46:22;;;;;;;;;;;14.60;32.90;16.30;96309.00;;;;5055279;28;1910;-89
2024/04/01 00:48:49;;;;;;;;;;;14.60;32.80;16.20;96305.00;;;;5058540;28;1776;-89
2024/04/01 00:51:16;;;;;;;;;;;14.60;33.00;16.20;96327.00;;;;5055633;28;1708;-89
2024/04/01 00:53:43;;;;;;;;;;;14.50;33.30;16.10;96378.00;;;;5055338;28;1713;-89
2024/04/01 00:56:09;;;;;;;;;;;14.50;33.80;16.10;96328.00;;;;5054900;28;1641;-90
2024/04/01 00:58:36;;;;;;;;;;;14.50;33.70;16.20;96330.00;;;;5058802;28;1827;-89
2024/04/01 01:01:03;;;;;;;;;;;14.50;33.40;16.10;96351.00;;;;5055169;28;1661;-89
2024/04/01 01:03:30;;;;;;;;;;;14.50;33.30;16.20;96369.00;;;;5055447;28;1838;-88
2024/04/01 01:05:57;;;;;;;;;;;14.60;33.20;16.20;96278.00;;;;5056719;28;1905;-89
2024/04/01 01:08:24;;;;;;;;;;;14.60;33.10;16.20;96332.00;;;;5055963;28;1645;-89
2024/04/01 01:10:50;;;;;;;;;;;14.60;33.00;16.30;96293.00;;;;5054639;28;1638;-89
2024/04/01 01:13:17;;;;;;;;;;;14.60;32.80;16.30;96330.00;;;;5059268;28;1648;-89
2024/04/01 01:15:43;;;;;;;;;;;14.60;32.80;16.30;96310.00;;;;5059094;28;1853;-88
2024/04/01 01:18:12;;;;;;;;;;;14.60;32.70;16.30;96291.00;;;;5060934;28;1858;-88
2024/04/01 01:20:38;;;;;;;;;;;14.60;33.00;16.20;96321.00;;;;5059248;28;1642;-89
2024/04/01 01:23:07;;;;;;;;;;;14.50;33.40;16.20;96300.00;;;;5057244;28;1846;-89
2024/04/01 01:25:37;;;;;;;;;;;14.50;33.80;16.20;96316.00;;;;5058849;28;1748;-91
2024/04/01 01:28:06;;;;;;;;;;;14.50;33.60;16.20;96256.00;;;;5058964;28;1981;-89
2024/04/01 01:30:35;;;;;;;;;;;14.50;33.20;16.00;96258.00;;;;5065927;28;1772;-89
2024/04/01 01:33:03;;;;;;;;;;;14.60;33.20;16.20;96245.00;;;;5054013;28;1511;-89
2024/04/01 01:35:57;;;;;;;;;;;14.60;33.10;16.20;96318.00;;;;5058453;28;1847;-89
2024/04/01 01:38:25;;;;;;;;;;;14.60;33.00;16.20;96285.00;;;;5054040;28;1661;-89
2024/04/01 01:40:53;;;;;;;;;;;14.60;32.90;16.20;96274.00;;;;5052359;28;1817;-89
2024/04/01 01:43:19;;;;;;;;;;;14.60;32.70;16.20;96223.00;;;;5059144;28;1634;-89
2024/04/01 01:45:46;;;;;;;;;;;14.60;32.60;16.20;96318.00;;;;5056749;28;1618;-89
2024/04/01 01:48:12;;;;;;;;;;;14.60;32.70;16.20;96201.00;;;;5047756;28;1910;-89
2024/04/01 01:50:39;;;;;;;;;;;14.60;33.10;16.20;96258.00;;;;5061497;28;1794;-89
2024/04/01 01:53:05;;;;;;;;;;;14.50;33.60;16.10;96254.00;;;;5058464;28;1644;-89
2024/04/01 01:55:34;;;;;;;;;;;14.50;33.90;16.10;96211.00;;;;5051112;28;1684;-89
2024/04/01 01:58:00;;;;;;;;;;;14.40;34.10;16.10;96216.00;;;;5049422;28;1852;-89
2024/04/01 02:00:27;;;;;;;;;;;14.40;34.30;16.00;96208.00;;;;5049458;28;1515;-88
2024/04/01 02:02:53;;;;;;;;;;;14.30;34.20;16.10;96205.00;;;;5058493;28;1652;-89
2024/04/01 02:05:20;;;;;;;;;;;14.40;33.90;16.10;96223.00;;;;5058347;28;1689;-89
2024/04/01 02:07:46;;;;;;;;;;;14.50;33.80;16.10;96133.00;;;;5057501;28;1906;-89
2024/04/01 02:10:21;;;;;;;;;;;14.40;33.50;15.80;96132.00;;;;5065089;28;1491;-88
2024/04/01 02:12:49;;;;;;;;;;;14.50;33.40;16.10;96133.00;;;;5062585;28;1742;-89
2024/04/01 02:15:16;;;;;;;;;;;14.50;33.30;16.20;96157.00;;;;5053713;28;1645;-88
2024/04/01 02:17:42;;;;;;;;;;;14.50;33.10;16.20;96098.00;;;;5057711;28;1865;-89
2024/04/01 02:20:15;;;;;;;;;;;14.60;33.00;16.20;96168.00;;;;5060421;28;1906;-89
2024/04/01 02:22:43;;;;;;;;;;;14.60;32.90;16.20;96116.00;;;;5049248;28;1663;-89
2024/04/01 02:25:11;;;;;;;;;;;14.50;33.20;16.20;96170.00;;;;5058481;28;1849;-90
2024/04/01 02:27:38;;;;;;;;;;;14.50;33.60;16.10;96080.00;;;;5053585;28;1993;-88
2024/04/01 02:30:07;;;;;;;;;;;14.40;33.90;16.20;96123.00;;;;5058193;28;1400;-88
2024/04/01 02:32:33;;;;;;;;;;;14.50;33.70;16.20;96027.00;;;;5053394;28;1756;-89
2024/04/01 02:35:00;;;;;;;;;;;14.50;33.40;16.20;96048.00;;;;5065113;28;1775;-89
2024/04/01 02:37:26;;;;;;;;;;;14.50;33.30;16.20;96082.00;;;;5057532;28;1490;-89
2024/04/01 02:39:53;;;;;;;;;;;14.50;33.20;16.00;96103.00;;;;5054178;28;1574;-88
2024/04/01 02:42:20;;;;;;;;;;;14.50;32.90;16.20;96101.00;;;;5057943;28;2617;-88
2024/04/01 02:44:47;;;;;;;;;;;14.60;32.90;16.20;96027.00;;;;5056590;28;1794;-88
2024/04/01 02:47:14;;;;;;;;;;;14.60;32.80;16.30;96068.00;;;;5057367;28;1902;-89
2024/04/01 02:49:41;;;;;;;;;;;14.60;32.80;16.20;96103.00;;;;5053455;28;1806;-88
2024/04/01 02:52:08;;;;;;;;;;;14.60;32.70;16.20;96123.00;;;;5058210;28;1797;-88
2024/04/01 02:54:42;;;;;;;;;;;14.50;33.00;16.20;96123.00;;;;5058626;28;1709;-89
2024/04/01 02:57:08;;;;;;;;;;;14.50;33.70;16.20;96108.00;;;;5056599;28;1650;-88
2024/04/01 02:59:35;;;;;;;;;;;14.50;33.70;16.20;96154.00;;;;5051395;28;1641;-89
2024/04/01 03:02:01;;;;;;;;;;;14.50;33.30;16.20;96126.00;;;;5056269;28;1854;-88
2024/04/01 03:04:30;;;;;;;;;;;14.50;33.20;16.20;96120.00;;;;5062800;28;1830;-89
2024/04/01 03:06:56;;;;;;;;;;;14.50;33.10;16.20;96097.00;;;;5059332;28;1898;-89
2024/04/01 03:09:23;;;;;;;;;;;14.60;33.00;16.20;95985.00;;;;5059100;28;1783;-88
2024/04/01 03:11:50;;;;;;;;;;;14.60;32.90;16.20;95995.00;;;;5053471;28;1624;-88
2024/04/01 03:14:17;;;;;;;;;;;14.60;32.70;16.20;96040.00;;;;5055519;28;1701;-88
2024/04/01 03:16:43;;;;;;;;;;;14.60;32.60;16.30;96084.00;;;;5053876;28;1703;-89
2024/04/01 03:19:10;;;;;;;;;;;14.60;32.50;16.10;96032.00;;;;5060992;28;1846;-89
2024/04/01 03:21:37;;;;;;;;;;;14.60;32.80;16.20;95997.00;;;;5056670;28;1666;-88
2024/04/01 03:24:05;;;;;;;;;;;14.50;33.20;16.20;96141.00;;;;5057538;28;1642;-89
2024/04/01 03:26:31;;;;;;;;;;;14.50;33.70;16.20;96122.00;;;;5057416;28;1984;-88
2024/04/01 03:28:58;;;;;;;;;;;14.50;34.20;16.10;96144.00;;;;5051916;28;1682;-91
2024/04/01 03:31:24;;;;;;;;;;;14.50;33.20;16.20;96050.00;;;;5046196;28;1565;-89
2024/04/01 03:33:52;;;;;;;;;;;14.50;33.10;16.00;96106.00;;;;5051641;28;1483;-89
2024/04/01 03:36:18;;;;;;;;;;;14.50;32.90;16.20;96123.00;;;;5055647;28;1736;-88
2024/04/01 03:38:47;;;;;;;;;;;14.60;32.90;16.00;96133.00;;;;5056557;28;1689;-89
2024/04/01 03:41:14;;;;;;;;;;;14.60;32.80;16.20;96079.00;;;;5055472;28;1819;-89
2024/04/01 03:43:40;;;;;;;;;;;14.60;32.70;16.30;96076.00;;;;5061881;28;1773;-88
2024/04/01 03:46:08;;;;;;;;;;;14.60;32.60;16.30;96084.00;;;;5064112;28;1896;-89
2024/04/01 03:48:34;;;;;;;;;;;14.60;33.20;16.20;96099.00;;;;5062810;28;1975;-88
2024/04/01 03:51:01;;;;;;;;;;;14.60;32.80;16.20;96078.00;;;;5056713;28;1698;-88
2024/04/01 03:53:28;;;;;;;;;;;14.50;33.20;16.20;96070.00;;;;5055273;28;1857;-89
2024/04/01 03:56:02;;;;;;;;;;;14.50;33.60;16.00;96133.00;;;;5051367;28;1634;-89
2024/04/01 03:58:28;;;;;;;;;;;14.40;33.90;16.10;96097.00;;;;5060113;28;1542;-88
2024/04/01 04:00:55;;;;;;;;;;;14.40;34.00;16.00;96057.00;;;;5055817;28;1617;-89
2024/04/01 04:03:21;;;;;;;;;;;14.30;34.10;16.10;96008.00;;;;5061089;28;1567;-88
2024/04/01 04:05:48;;;;;;;;;;;14.40;33.90;16.10;96032.00;;;;5063246;28;1851;-89
2024/04/01 04:08:14;;;;;;;;;;;14.40;33.70;16.10;96015.00;;;;5055621;28;2024;-89
2024/04/01 04:10:43;;;;;;;;;;;14.40;33.50;16.10;96012.00;;;;5055958;28;1516;-89
2024/04/01 04:13:10;;;;;;;;;;;14.50;33.40;15.90;96076.00;;;;5064807;28;1618;-89
2024/04/01 04:15:38;;;;;;;;;;;14.50;33.30;16.10;96063.00;;;;5057500;28;1672;-88
2024/04/01 04:18:04;;;;;;;;;;;14.50;33.10;16.20;96033.00;;;;5056218;28;1642;-89
2024/04/01 04:20:31;;;;;;;;;;;14.50;32.90;16.20;96081.00;;;;5058929;28;1873;-88
2024/04/01 04:22:57;;;;;;;;;;;14.50;32.80;16.10;96102.00;;;;5061985;28;1836;-88
2024/04/01 04:25:24;;;;;;;;;;;14.50;32.90;16.10;96089.00;;;;5053881;28;1754;-88
2024/04/01 04:28:12;;;;;;;;;;;14.50;33.20;16.10;96092.00;;;;5055265;28;1898;-89
2024/04/01 04:30:39;;;;;;;;;;;14.40;33.80;16.10;96089.00;;;;5051416;28;1645;-89
2024/04/01 04:33:05;;;;;;;;;;;14.40;33.80;16.10;96136.00;;;;5055126;28;1845;-89
2024/04/01 04:35:32;;;;;;;;;;;14.40;33.40;16.10;96101.00;;;;5052658;28;1820;-89
2024/04/01 04:37:58;;;;;;;;;;;14.50;33.30;16.00;96090.00;;;;5055783;28;1702;-90
2024/04/01 04:40:27;;;;;;;;;;;14.50;33.10;16.20;96104.00;;;;5055549;28;1817;-89
2024/04/01 04:43:06;;;;;;;;;;;14.50;33.00;16.20;96100.00;;;;5057733;28;1717;-89
2024/04/01 04:45:34;;;;;;;;;;;14.50;33.00;16.20;96099.00;;;;5052560;28;1638;-89
2024/04/01 04:48:00;;;;;;;;;;;14.50;32.80;15.80;96063.00;;;;5062047;28;1979;-89
2024/04/01 04:50:28;;;;;;;;;;;14.50;32.70;16.20;96040.00;;;;5058600;28;1662;-88
2024/04/01 04:52:54;;;;;;;;;;;14.60;32.60;16.20;96030.00;;;;5059809;28;1698;-88
2024/04/01 04:55:22;;;;;;;;;;;14.50;32.90;16.10;96150.00;;;;5067187;28;1785;-89
2024/04/01 04:57:55;;;;;;;;;;;14.40;33.20;16.10;96033.00;;;;5062027;28;1681;-89
2024/04/01 05:00:22;;;;;;;;;;;14.40;33.80;16.10;96004.00;;;;5062395;28;1860;-88
2024/04/01 05:02:50;;;;;;;;;;;14.40;33.40;16.10;96021.00;;;;5061710;28;1690;-89
2024/04/01 05:05:17;;;;;;;;;;;14.40;33.20;16.10;96012.00;;;;5063689;28;1872;-89
2024/04/01 05:07:44;;;;;;;;;;;14.50;33.10;16.00;96054.00;;;;5059069;28;1989;-89
2024/04/01 05:10:12;;;;;;;;;;;14.50;33.00;16.10;96005.00;;;;5063969;28;1506;-89
2024/04/01 05:12:38;;;;;;;;;;;14.50;32.80;16.20;96077.00;;;;5053519;28;1809;-89
2024/04/01 05:15:06;;;;;;;;;;;14.50;32.70;16.20;96083.00;;;;5060310;28;1623;-89
2024/04/01 05:17:32;;;;;;;;;;;14.50;32.70;16.00;96053.00;;;;5061626;28;1665;-89
2024/04/01 05:20:01;;;;;;;;;;;14.50;32.50;16.20;96078.00;;;;5062155;28;1814;-89
2024/04/01 05:22:27;;;;;;;;;;;14.50;32.60;16.00;96044.00;;;;5061463;28;1644;-88
2024/04/01 05:24:55;;;;;;;;;;;14.50;33.10;16.10;95975.00;;;;5056660;28;1692;-89
2024/04/01 05:27:34;;;;;;;;;;;14.50;33.50;16.10;96075.00;;;;5061883;28;1977;-88
2024/04/01 05:30:03;;;;;;;;;;;14.40;33.70;16.10;96032.00;;;;5060151;28;1476;-88
2024/04/01 05:32:29;;;;;;;;;;;14.40;33.20;16.10;96042.00;;;;5062021;28;1661;-88
2024/04/01 05:34:56;;;;;;;;;;;14.50;33.20;16.10;96035.00;;;;5059806;28;1603;-88
2024/04/01 05:37:24;;;;;;;;;;;14.50;33.00;16.10;95950.00;;;;5061670;28;1641;-90
2024/04/01 05:39:51;;;;;;;;;;;14.50;32.90;16.10;96062.00;;;;5061893;28;1634;-89
2024/04/01 05:42:17;;;;;;;;;;;14.50;32.70;16.20;95944.00;;;;5060975;28;1821;-89
2024/04/01 05:44:44;;;;;;;;;;;14.50;32.60;16.20;96011.00;;;;5062190;28;1745;-89
2024/04/01 05:47:11;;;;;;;;;;;14.50;32.60;16.10;96028.00;;;;5065553;28;1902;-89
2024/04/01 05:49:40;;;;;;;;;;;14.50;33.10;16.20;95967.00;;;;5066386;28;1636;-89
2024/04/01 05:52:07;;;;;;;;;;;14.50;32.70;16.10;95981.00;;;;5089184;28;1314;-89
2024/04/01 05:54:34;;;;;;;;;;;14.40;33.00;16.10;96028.00;;;;5062881;28;1642;-88
2024/04/01 05:57:02;;;;;;;;;;;14.40;33.60;16.10;96018.00;;;;5052652;28;1840;-89
2024/04/01 05:59:28;;;;;;;;;;;14.40;33.80;15.90;96029.00;;;;5058057;28;1470;-88
2024/04/01 06:02:12;;;;;;;;;;;14.30;33.90;16.00;95972.00;;;;5063269;28;1748;-88
2024/04/01 06:04:38;;;;;;;;;;;14.30;34.20;16.00;95996.00;;;;5051979;28;1654;-88
2024/04/01 06:07:06;;;;;;;;;;;14.30;33.90;16.00;95937.00;;;;5056801;28;1897;-89
2024/04/01 06:09:33;;;;;;;;;;;14.30;33.60;16.00;95889.00;;;;5058009;28;1658;-88
2024/04/01 06:12:02;;;;;;;;;;;14.40;33.50;16.10;95971.00;;;;5063407;28;1489;-90
2024/04/01 06:14:28;;;;;;;;;;;14.40;33.40;16.10;95971.00;;;;5057265;28;1736;-88
2024/04/01 06:16:56;;;;;;;;;;;14.40;33.20;16.10;95932.00;;;;5055271;28;1478;-88
2024/04/01 06:19:23;;;;;;;;;;;14.40;33.00;16.10;95982.00;;;;5057718;28;1687;-89
2024/04/01 06:21:50;;;;;;;;;;;14.50;32.90;16.10;95994.00;;;;5056482;28;1726;-89
2024/04/01 06:24:21;;;;;;;;;;;14.50;32.80;16.10;95983.00;;;;5055480;28;1836;-88
2024/04/01 06:26:48;;;;;;;;;;;14.50;32.90;16.10;96026.00;;;;5048211;28;1435;-88
2024/04/01 06:29:15;;;;;;;;;;;14.40;33.30;16.00;96018.00;;;;5055450;28;1910;-89
2024/04/01 06:31:43;;;;;;;;;;;14.40;33.70;16.00;95978.00;;;;5059897;28;1833;-90
2024/04/01 06:34:09;;;;;;;;;;;14.40;33.80;16.10;95955.00;;;;5055040;28;1738;-88
2024/04/01 06:36:37;;;;;;;;;;;14.40;33.40;16.10;95947.00;;;;5063101;28;1461;-88
2024/04/01 06:39:04;;;;;;;;;;;14.40;33.30;16.10;95987.00;;;;5056331;28;1674;-89
2024/04/01 06:41:32;;;;;;;;;;;14.40;33.10;16.10;95977.00;;;;5057581;28;1697;-88
2024/04/01 06:43:58;;;;;;;;;;;14.50;33.00;16.20;96017.00;;;;5057430;28;1832;-89
2024/04/01 06:46:26;;;;;;;;;;;14.50;33.50;16.20;96004.00;;;;5056178;28;1531;-89
2024/04/01 06:48:52;;;;;;;;;;;14.50;32.80;16.20;95973.00;;;;5056881;28;1981;-88
2024/04/01 06:51:19;;;;;;;;;;;14.50;32.60;16.20;96024.00;;;;5077943;28;1570;-89
2024/04/01 06:53:45;;;;;;;;;;;14.50;32.50;16.20;95955.00;;;;5053564;28;1780;-89
2024/04/01 06:56:13;;;;;;;;;;;14.50;32.70;16.00;95983.00;;;;5057286;28;1738;-88
2024/04/01 06:58:39;;;;;;;;;;;14.50;33.10;16.00;95955.00;;;;5061462;28;1704;-88
2024/04/01 07:01:07;;;;;;;;;;;14.40;33.50;16.20;95976.00;;;;5057665;28;1824;-87
2024/04/01 07:03:34;;;;;;;;;;;14.40;33.50;16.10;96007.00;;;;5056277;28;1604;-88
2024/04/01 07:06:01;;;;;;;;;;;14.40;33.20;16.10;96019.00;;;;5058552;28;1782;-88
2024/04/01 07:08:28;;;;;;;;;;;14.50;33.10;16.20;96033.00;;;;5052942;28;1991;-87
2024/04/01 07:10:55;;;;;;;;;;;14.50;32.90;16.20;96043.00;;;;5060016;28;1407;-86
2024/04/01 07:13:21;;;;;;;;;;;14.50;32.80;16.20;96033.00;;;;5057673;28;1835;-87
2024/04/01 07:15:48;;;;;;;;;;;14.50;32.70;16.20;96048.00;;;;5055527;28;1712;-89
2024/04/01 07:18:14;;;;;;;;;;;14.60;32.70;16.20;96043.00;;;;5055084;28;1710;-87
2024/04/01 07:20:46;;;;;;;;;;;14.60;32.50;16.20;95980.00;;;;5052873;28;1610;-87
2024/04/01 07:23:12;;;;;;;;;;;14.60;32.50;16.20;96073.00;;;;5054395;28;1642;-88
2024/04/01 07:25:39;;;;;;;;;;;14.50;32.70;16.20;96035.00;;;;5055142;28;1709;-87
2024/04/01 07:28:05;;;;;;;;;;;14.50;33.10;16.20;96053.00;;;;5056741;28;1988;-88
2024/04/01 07:30:32;;;;;;;;;;;14.50;33.50;16.20;96043.00;;;;5056934;28;1815;-87
2024/04/01 07:32:59;;;;;;;;;;;14.50;33.20;16.20;96040.00;;;;5056947;28;1807;-89
2024/04/01 07:35:26;;;;;;;;;;;14.50;33.10;16.20;96056.00;;;;5054467;28;1807;-88
2024/04/01 07:37:53;;;;;;;;;;;14.50;32.90;16.30;96066.00;;;;5054325;28;1634;-88
2024/04/01 07:40:20;;;;;;;;;;;14.60;32.90;16.30;96027.00;;;;5063762;28;1516;-87
2024/04/01 07:42:49;;;;;;;;;;;14.60;32.70;16.20;96048.00;;;;5052893;28;1617;-87
2024/04/01 07:45:16;;;;;;;;;;;14.60;32.50;16.30;96011.00;;;;5079189;28;1688;-87
2024/04/01 07:47:42;;;;;;;;;;;14.60;32.50;16.30;96108.00;;;;5048167;28;1906;-87
2024/04/01 07:50:09;;;;;;;;;;;14.60;32.30;16.30;96094.00;;;;5054692;28;1315;-87
2024/04/01 07:52:36;;;;;;;;;;;14.60;32.50;16.30;96073.00;;;;5058650;28;1618;-87
2024/04/01 07:55:06;;;;;;;;;;;14.60;32.80;16.30;96057.00;;;;5052172;28;1654;-87
2024/04/01 07:57:32;;;;;;;;;;;14.60;33.40;16.20;96042.00;;;;5048204;28;1567;-86
2024/04/01 07:59:59;;;;;;;;;;;14.50;33.50;16.10;96085.00;;;;5055772;28;1275;-88
2024/04/01 08:02:26;;;;;;;;;;;14.50;34.40;16.20;96082.00;;;;5055821;28;1820;-87
2024/04/01 08:04:53;;;;;;;;;;;14.40;34.10;16.10;96098.00;;;;5057802;28;1809;-87
2024/04/01 08:07:19;;;;;;;;;;;14.40;34.20;16.10;96097.00;;;;5054924;28;1902;-87
2024/04/01 08:09:46;;;;;;;;;;;14.50;34.00;16.20;96115.00;;;;5055612;28;1714;-87
2024/04/01 08:12:14;;;;;;;;;;;14.50;33.60;16.20;96078.00;;;;5046677;28;1764;-87
2024/04/01 08:14:41;;;;;;;;;;;14.60;33.60;16.20;96104.00;;;;5056602;28;1751;-87
2024/04/01 08:17:07;;;;;;;;;;;14.60;33.30;16.20;96152.00;;;;5051668;28;1682;-87
2024/04/01 08:19:35;;;;;;;;;;;14.60;33.10;16.30;96073.00;;;;5034069;28;1697;-87
2024/04/01 08:22:01;;;;;;;;;;;14.60;32.90;16.30;96087.00;;;;5056206;28;1647;-87
2024/04/01 08:24:28;;;;;;;;;;;14.60;32.80;16.30;96151.00;;;;5056005;28;1632;-87
2024/04/01 08:26:56;;;;;;;;;;;14.60;32.70;16.30;96177.00;;;;5055377;28;1583;-87
2024/04/01 08:29:24;;;;;;;;;;;14.60;33.00;16.30;96205.00;;;;5055086;28;1984;-87
2024/04/01 08:31:50;;;;;;;;;;;14.60;33.70;16.30;96133.00;;;;5054973;28;1649;-87
2024/04/01 08:34:21;;;;;;;;;;;14.60;33.50;16.30;96205.00;;;;5060305;28;1704;-87
2024/04/01 08:36:48;;;;;;;;;;;14.60;33.70;16.40;96171.00;;;;5053934;28;1820;-87
2024/04/01 08:39:17;;;;;;;;;;;14.60;33.30;16.30;96146.00;;;;5054896;28;1651;-87
2024/04/01 08:41:45;;;;;;;;;;;14.60;33.20;16.40;96135.00;;;;5053852;28;1645;-87
2024/04/01 08:44:16;;;;;;;;;;;14.60;33.00;16.30;96276.00;;;;5054635;28;2748;-87
2024/04/01 08:47:07;;;;;;;;;;;14.70;33.00;16.40;96209.00;;;;5055219;28;1779;-87
2024/04/01 08:49:39;;;;;;;;;;;14.70;32.80;16.40;96220.00;;;;5052846;28;1902;-86
2024/04/01 08:52:09;;;;;;;;;;;14.70;32.80;16.40;96222.00;;;;5053888;28;1543;-88
2024/04/01 08:54:36;;;;;;;;;;;14.70;33.20;16.40;96214.00;;;;5049148;28;1824;-86
2024/04/01 08:57:02;;;;;;;;;;;14.70;32.60;16.40;96166.00;;;;5056627;28;1643;-87
2024/04/01 08:59:29;;;;;;;;;;;14.70;33.00;16.40;96189.00;;;;5054126;28;1710;-87
2024/04/01 09:02:01;;;;;;;;;;;14.60;33.20;16.40;96266.00;;;;5055413;28;1654;-87
2024/04/01 09:04:30;;;;;;;;;;;14.60;33.60;16.40;96249.00;;;;5055117;28;1574;-86
2024/04/01 09:06:56;;;;;;;;;;;14.60;33.20;16.30;96328.00;;;;5055129;28;1795;-87
2024/04/01 09:09:23;;;;;;;;;;;14.70;33.20;16.40;96294.00;;;;5054848;28;1985;-86
2024/04/01 09:11:50;;;;;;;;;;;14.70;32.90;16.30;96341.00;;;;5060186;28;1626;-86
2024/04/01 09:14:17;;;;;;;;;;;14.70;32.80;16.40;96350.00;;;;5065189;28;1715;-86
2024/04/01 09:16:44;;;;;;;;;;;14.70;32.80;16.40;96391.00;;;;5056951;28;1433;-86
2024/04/01 09:19:11;;;;;;;;;;;14.70;32.70;16.40;96336.00;;;;5053922;28;1780;-86
2024/04/01 09:21:39;;;;;;;;;;;14.70;32.50;16.40;96382.00;;;;5056242;28;1845;-86
2024/04/01 09:24:06;;;;;;;;;;;14.70;32.50;16.40;96365.00;;;;5054926;28;1665;-86
2024/04/01 09:26:32;;;;;;;;;;;14.70;32.70;16.40;96385.00;;;;5061267;28;1714;-87
2024/04/01 09:29:10;;;;;;;;;;;14.70;32.90;16.40;96403.00;;;;5056911;28;1898;-87
2024/04/01 09:31:36;;;;;;;;;;;14.70;33.20;16.40;96428.00;;;;5055280;28;1664;-87
2024/04/01 09:34:03;;;;;;;;;;;14.70;33.40;16.40;96372.00;;;;5055874;28;1528;-87
2024/04/01 09:36:29;;;;;;;;;;;14.70;33.20;16.40;96369.00;;;;5058387;28;1639;-87
2024/04/01 09:39:02;;;;;;;;;;;14.70;32.90;16.40;96390.00;;;;5057361;28;1621;-86
2024/04/01 09:41:28;;;;;;;;;;;14.70;32.90;16.30;96427.00;;;;5058152;28;1487;-88
2024/04/01 09:43:58;;;;;;;;;;;14.70;32.70;16.40;96379.00;;;;5058473;28;1641;-87
2024/04/01 09:46:24;;;;;;;;;;;14.80;32.80;16.40;96434.00;;;;5050638;28;1605;-88
2024/04/01 09:48:51;;;;;;;;;;;14.70;32.50;16.50;96478.00;;;;5060511;28;1910;-87
2024/04/01 09:51:18;;;;;;;;;;;14.80;32.40;16.50;96400.00;;;;5055114;28;1656;-87
2024/04/01 09:53:46;;;;;;;;;;;14.80;32.50;16.40;96480.00;;;;5056645;28;1687;-88
2024/04/01 09:56:56;;;;;;;;;;;14.80;32.70;16.40;96478.00;;;;5059136;28;1617;-87
2024/04/01 09:59:41;;;;;;;;;;;14.70;33.00;16.40;96471.00;;;;5060437;28;1782;-88
2024/04/01 10:02:21;;;;;;;;;;;14.70;33.40;16.30;96501.00;;;;5061593;28;1798;-88
2024/04/01 10:05:13;;;;;;;;;;;14.60;33.80;16.30;96488.00;;;;5064563;28;1634;-88
2024/04/01 10:08:07;;;;;;;;;;;14.60;34.30;16.30;96498.00;;;;5067480;28;1815;-87
2024/04/01 10:10:51;;;;;;;;;;;14.60;34.20;16.30;96499.00;;;;5058781;28;1726;-88
2024/04/01 10:14:02;;;;;;;;;;;14.60;33.70;16.40;96508.00;;;;5062405;28;1641;-87
2024/04/01 10:17:01;;;;;;;;;;;14.70;33.60;16.30;96506.00;;;;5018827;28;1521;-88
2024/04/01 10:19:48;;;;;;;;;;;14.70;33.30;16.40;96504.00;;;;5022294;28;1436;-87
2024/04/01 10:22:37;;;;;;;;;;;14.70;33.10;16.40;96503.00;;;;5064858;28;1498;-87
2024/04/01 10:25:35;;;;;;;;;;;14.80;33.10;16.50;96514.00;;;;5060529;28;1788;-87
2024/04/01 10:28:32;;;;;;;;;;;14.80;33.00;16.40;96536.00;;;;5012956;28;1979;-88
2024/04/01 10:31:43;;;;;;;;;;;14.80;33.00;16.40;96548.00;;;;5052965;28;1791;-87
2024/04/01 10:34:34;;;;;;;;;;;14.80;33.30;16.40;96546.00;;;;4982558;28;1839;-86
2024/04/01 10:37:28;;;;;;;;;;;14.80;33.50;16.40;96534.00;;;;4951466;28;1501;-88
2024/04/01 10:40:06;;;;;;;;;;;14.70;33.40;16.50;96552.00;;;;5044957;28;1627;-86
2024/04/01 10:42:58;;;;;;;;;;;14.80;33.30;16.40;96580.00;;;;5058314;28;1831;-87
2024/04/01 10:46:01;;;;;;;;;;;14.70;33.10;16.50;96572.00;;;;5058951;28;1452;-87
2024/04/01 10:48:29;;;;;;;;;;;14.80;33.00;16.50;96585.00;;;;4996724;28;1910;-86
2024/04/01 10:51:38;;;;;;;;;;;14.80;32.80;16.50;96586.00;;;;5046662;28;1642;-87
2024/04/01 10:54:04;;;;;;;;;;;14.80;32.80;16.50;96587.00;;;;5058320;28;1709;-87
2024/04/01 10:56:58;;;;;;;;;;;14.80;32.60;16.50;96558.00;;;;5051827;28;1621;-87
2024/04/01 10:59:49;;;;;;;;;;;14.80;32.80;16.50;96595.00;;;;5056833;28;1630;-86
2024/04/01 11:02:35;;;;;;;;;;;14.80;33.00;16.40;96609.00;;;;5056026;28;1780;-86
2024/04/01 11:05:14;;;;;;;;;;;14.70;33.20;16.40;96633.00;;;;5053369;28;1697;-87
2024/04/01 11:07:50;;;;;;;;;;;14.70;33.50;16.50;96623.00;;;;5052772;28;1637;-86
2024/04/01 11:10:20;;;;;;;;;;;14.80;33.30;16.50;96625.00;;;;5054318;28;1975;-86
2024/04/01 11:12:50;;;;;;;;;;;14.70;33.10;16.50;96619.00;;;;5057238;28;1634;-86
2024/04/01 11:15:17;;;;;;;;;;;14.80;33.00;16.50;96611.00;;;;5055316;28;1664;-85
2024/04/01 11:17:44;;;;;;;;;;;14.80;32.80;16.40;96659.00;;;;5057374;28;1761;-86
2024/04/01 11:20:32;;;;;;;;;;;14.80;32.70;16.50;96671.00;;;;5064128;28;1803;-89
2024/04/01 11:23:06;;;;;;;;;;;14.80;32.70;16.40;96639.00;;;;5068957;28;1880;-86
2024/04/01 11:25:39;;;;;;;;;;;14.80;32.60;16.50;96667.00;;;;5057904;28;1653;-86
2024/04/01 11:28:11;;;;;;;;;;;14.80;32.80;16.50;96685.00;;;;5062134;28;1907;-86
2024/04/01 11:30:37;;;;;;;;;;;14.80;33.00;16.50;96635.00;;;;5067447;28;1666;-86
2024/04/01 11:33:06;;;;;;;;;;;14.80;33.20;16.50;96674.00;;;;5064524;28;1423;-87
2024/04/01 11:35:44;;;;;;;;;;;14.80;33.60;16.50;96653.00;;;;5071171;28;1653;-86
2024/04/01 11:38:20;;;;;;;;;;;14.80;33.20;16.60;96712.00;;;;5057260;28;1615;-86
2024/04/01 11:40:46;;;;;;;;;;;14.80;33.10;16.60;96722.00;;;;5053126;28;1618;-86
2024/04/01 11:43:13;;;;;;;;;;;14.80;32.90;16.60;96715.00;;;;5056868;28;1613;-86
2024/04/01 11:45:41;;;;;;;;;;;14.90;32.90;16.60;96697.00;;;;5056726;28;1785;-86
2024/04/01 11:48:08;;;;;;;;;;;14.80;32.70;16.60;96713.00;;;;5061766;28;1902;-86
2024/04/01 11:50:34;;;;;;;;;;;14.80;32.50;16.60;96741.00;;;;5052779;28;1648;-85
2024/04/01 11:53:03;;;;;;;;;;;14.80;32.40;16.50;96729.00;;;;5056451;28;1645;-86
2024/04/01 11:55:29;;;;;;;;;;;14.80;32.50;16.50;96691.00;;;;5047559;28;1665;-86
2024/04/01 11:58:07;;;;;;;;;;;14.80;32.70;16.50;96733.00;;;;5055920;28;1659;-86
2024/04/01 12:00:33;;;;;;;;;;;14.80;33.00;16.50;96736.00;;;;5056394;28;1789;-86
2024/04/01 12:03:00;;;;;;;;;;;14.70;33.40;16.50;96758.00;;;;5050556;28;1680;-87
2024/04/01 12:05:27;;;;;;;;;;;14.70;33.70;16.50;96750.00;;;;5055790;28;1714;-86
2024/04/01 12:07:56;;;;;;;;;;;14.70;34.00;16.40;96708.00;;;;5053115;28;1578;-85
2024/04/01 12:10:26;;;;;;;;;;;14.60;34.30;16.40;96730.00;;;;5054570;28;1987;-85
2024/04/01 12:12:53;;;;;;;;;;;14.70;34.00;16.40;96761.00;;;;5055075;28;1795;-86
2024/04/01 12:15:19;;;;;;;;;;;14.70;33.70;16.40;96763.00;;;;5058532;28;1614;-86
2024/04/01 12:17:46;;;;;;;;;;;14.70;33.60;16.50;96718.00;;;;5050263;28;1888;-85
2024/04/01 12:20:13;;;;;;;;;;;14.70;33.40;16.50;96747.00;;;;5056151;28;1693;-86
2024/04/01 12:22:41;;;;;;;;;;;14.80;33.20;16.50;96763.00;;;;5059750;28;1822;-86